Time;durP1;ratioP1;P1;durP2;ratioP2;P2;SDS_P1;SDS_P2;PMS_P1;PMS_P2;Temp;Humidity;BMP_temperature;BMP_pressure;BME280_temperature;BME280_humidity;BME280_pressure;Samples;Min_cycle;Max_cycle;Signal;HPM_P1;HPM_P2
2022/10/18 00:01:43;;;;;;;17.13;4.28;;;;;;;;;;5033984;28;20033;-67
2022/10/18 00:04:10;;;;;;;12.63;3.88;;;;;;;;;;5032907;28;20022;-67
2022/10/18 00:06:36;;;;;;;14.57;4.25;;;;;;;;;;5034488;28;20036;-67
2022/10/18 00:09:03;;;;;;;12.23;3.78;;;;;;;;;;5034279;28;20036;-67
2022/10/18 00:11:29;;;;;;;14.32;4.32;;;;;;;;;;5034082;28;20433;-68
2022/10/18 00:13:56;;;;;;;16.83;4.35;;;;;;;;;;5034051;28;20037;-67
2022/10/18 00:16:23;;;;;;;14.80;3.85;;;;;;;;;;5033254;28;20038;-67
2022/10/18 00:18:49;;;;;;;11.48;3.47;;;;;;;;;;5033966;28;20052;-67
2022/10/18 00:21:17;;;;;;;12.00;3.95;;;;;;;;;;5033738;28;20017;-68
2022/10/18 00:23:44;;;;;;;12.25;4.03;;;;;;;;;;5032603;28;20528;-67
2022/10/18 00:26:12;;;;;;;14.52;4.38;;;;;;;;;;5033648;28;20027;-67
2022/10/18 00:28:39;;;;;;;12.82;3.92;;;;;;;;;;5033583;28;20021;-67
2022/10/18 00:31:14;;;;;;;20.13;4.30;;;;;;;;;;5033493;28;20025;-67
2022/10/18 00:33:41;;;;;;;18.02;4.38;;;;;;;;;;5033853;28;20374;-67
2022/10/18 00:36:08;;;;;;;10.57;3.83;;;;;;;;;;5033236;28;20033;-67
2022/10/18 00:38:34;;;;;;;16.60;3.97;;;;;;;;;;5032450;28;20036;-67
2022/10/18 00:41:01;;;;;;;14.82;3.75;;;;;;;;;;5033443;28;20040;-67
2022/10/18 00:43:27;;;;;;;16.85;4.40;;;;;;;;;;5032008;28;20218;-67
2022/10/18 00:45:53;;;;;;;13.98;3.45;;;;;;;;;;5032940;28;20386;-67
2022/10/18 00:48:20;;;;;;;13.13;4.05;;;;;;;;;;5033236;28;20467;-67
2022/10/18 00:50:47;;;;;;;10.07;3.65;;;;;;;;;;5033416;28;20051;-67
2022/10/18 00:53:20;;;;;;;18.05;4.00;;;;;;;;;;5033218;28;20074;-67
2022/10/18 00:55:46;;;;;;;15.27;3.90;;;;;;;;;;5033105;28;20045;-67
2022/10/18 00:58:13;;;;;;;13.55;3.25;;;;;;;;;;5033090;28;20021;-67
2022/10/18 01:00:40;;;;;;;15.35;3.58;;;;;;;;;;5033189;28;20033;-67
2022/10/18 01:03:08;;;;;;;11.25;3.67;;;;;;;;;;5032993;28;20028;-67
2022/10/18 01:05:40;;;;;;;13.88;3.78;;;;;;;;;;5032809;28;20032;-67
2022/10/18 01:08:09;;;;;;;12.98;4.18;;;;;;;;;;5032846;28;20548;-67
2022/10/18 01:11:01;;;;;;;12.18;3.50;;;;;;;;;;5032934;28;20398;-67
2022/10/18 01:13:39;;;;;;;11.43;3.65;;;;;;;;;;5032423;28;20048;-67
2022/10/18 01:16:15;;;;;;;10.13;3.67;;;;;;;;;;5032417;28;20047;-67
2022/10/18 01:18:48;;;;;;;10.50;3.92;;;;;;;;;;5032714;28;20398;-67
2022/10/18 01:21:35;;;;;;;12.93;4.00;;;;;;;;;;5031215;28;20078;-67
2022/10/18 01:24:01;;;;;;;13.82;4.00;;;;;;;;;;5032507;28;20026;-67
2022/10/18 01:26:46;;;;;;;8.95;3.95;;;;;;;;;;5032558;28;20483;-67
2022/10/18 01:29:18;;;;;;;17.45;4.47;;;;;;;;;;5032125;28;20032;-67
2022/10/18 01:31:44;;;;;;;12.15;3.90;;;;;;;;;;5032786;28;20026;-67
2022/10/18 01:34:13;;;;;;;11.50;3.60;;;;;;;;;;5032638;28;20026;-67
2022/10/18 01:36:45;;;;;;;17.27;4.20;;;;;;;;;;5032088;28;20029;-67
2022/10/18 01:39:14;;;;;;;11.75;3.83;;;;;;;;;;5032343;28;20029;-67
2022/10/18 01:41:42;;;;;;;9.32;3.78;;;;;;;;;;5032386;28;20047;-67
2022/10/18 01:44:09;;;;;;;15.68;3.95;;;;;;;;;;5032012;28;20036;-67
2022/10/18 01:46:37;;;;;;;9.05;3.60;;;;;;;;;;5032531;28;20037;-68
2022/10/18 01:49:03;;;;;;;12.82;3.58;;;;;;;;;;5032267;28;20021;-67
2022/10/18 01:51:30;;;;;;;18.38;4.78;;;;;;;;;;5032112;28;20039;-67
2022/10/18 01:53:57;;;;;;;13.18;4.10;;;;;;;;;;5032110;28;20065;-67
2022/10/18 01:56:26;;;;;;;13.00;3.67;;;;;;;;;;5031755;28;20040;-67
2022/10/18 01:59:05;;;;;;;12.85;3.70;;;;;;;;;;5031919;28;20030;-67
2022/10/18 02:01:37;;;;;;;14.20;3.75;;;;;;;;;;5032153;28;20035;-67
2022/10/18 02:04:07;;;;;;;8.20;3.53;;;;;;;;;;5031952;28;20051;-67
2022/10/18 02:06:36;;;;;;;17.27;3.95;;;;;;;;;;5032023;28;20029;-67
2022/10/18 02:09:07;;;;;;;19.42;4.55;;;;;;;;;;5031909;28;20022;-68
2022/10/18 02:11:35;;;;;;;14.93;4.20;;;;;;;;;;5031732;28;20026;-67
2022/10/18 02:14:10;;;;;;;17.90;3.90;;;;;;;;;;5031773;28;20045;-67
2022/10/18 02:16:36;;;;;;;11.40;3.50;;;;;;;;;;5031961;28;20045;-67
2022/10/18 02:19:15;;;;;;;16.85;3.97;;;;;;;;;;5031858;28;20026;-67
2022/10/18 02:21:42;;;;;;;15.75;4.22;;;;;;;;;;5031973;28;20026;-67
2022/10/18 02:24:10;;;;;;;13.27;4.07;;;;;;;;;;5031681;28;20479;-67
2022/10/18 02:26:37;;;;;;;13.35;4.35;;;;;;;;;;5031459;28;20024;-67
2022/10/18 02:29:03;;;;;;;12.98;4.45;;;;;;;;;;5031886;28;20036;-67
2022/10/18 02:31:30;;;;;;;16.77;4.28;;;;;;;;;;5031714;28;20048;-67
2022/10/18 02:33:57;;;;;;;8.52;4.28;;;;;;;;;;5032472;28;20018;-67
2022/10/18 02:36:36;;;;;;;18.50;3.88;;;;;;;;;;5035568;28;20482;-67
2022/10/18 02:39:13;;;;;;;12.20;3.90;;;;;;;;;;5035816;28;20040;-67
2022/10/18 02:41:39;;;;;;;12.65;3.72;;;;;;;;;;5035129;28;20402;-67
2022/10/18 02:44:06;;;;;;;9.95;3.50;;;;;;;;;;5035259;28;20026;-67
2022/10/18 02:46:33;;;;;;;14.30;3.50;;;;;;;;;;5035691;28;20036;-67
2022/10/18 02:49:00;;;;;;;13.48;3.53;;;;;;;;;;5035368;28;20386;-67
2022/10/18 02:51:26;;;;;;;9.40;3.05;;;;;;;;;;5035451;28;20497;-67
2022/10/18 02:53:52;;;;;;;12.02;3.65;;;;;;;;;;5035452;28;20028;-67
2022/10/18 02:56:19;;;;;;;12.63;3.83;;;;;;;;;;5034698;28;20067;-67
2022/10/18 02:58:45;;;;;;;7.43;3.15;;;;;;;;;;5035492;28;20059;-67
2022/10/18 03:01:11;;;;;;;13.68;3.67;;;;;;;;;;5035277;28;20036;-67
2022/10/18 03:03:38;;;;;;;11.30;3.55;;;;;;;;;;5035500;28;20018;-67
2022/10/18 03:06:04;;;;;;;12.55;3.92;;;;;;;;;;5035084;28;20059;-67
2022/10/18 03:08:31;;;;;;;11.45;3.83;;;;;;;;;;5034009;28;20033;-67
2022/10/18 03:10:57;;;;;;;14.90;3.75;;;;;;;;;;5035007;28;20079;-65
2022/10/18 03:13:23;;;;;;;20.63;3.78;;;;;;;;;;5033650;28;20513;-66
2022/10/18 03:15:50;;;;;;;13.52;3.50;;;;;;;;;;5034985;28;20036;-67
2022/10/18 03:18:16;;;;;;;14.10;4.20;;;;;;;;;;5034725;28;20534;-67
2022/10/18 03:20:42;;;;;;;13.65;4.15;;;;;;;;;;5035086;28;20071;-67
2022/10/18 03:23:08;;;;;;;10.18;3.92;;;;;;;;;;5034776;28;20383;-67
2022/10/18 03:25:35;;;;;;;14.48;4.00;;;;;;;;;;5034481;28;20017;-67
2022/10/18 03:28:01;;;;;;;13.10;3.88;;;;;;;;;;5034586;28;20021;-67
2022/10/18 03:30:28;;;;;;;15.00;4.07;;;;;;;;;;5033568;28;20051;-67
2022/10/18 03:32:54;;;;;;;12.25;3.53;;;;;;;;;;5034782;28;20033;-67
2022/10/18 03:35:21;;;;;;;12.43;3.95;;;;;;;;;;5034530;28;20018;-67
2022/10/18 03:37:47;;;;;;;14.15;4.15;;;;;;;;;;5034293;28;20038;-67
2022/10/18 03:40:13;;;;;;;16.90;4.00;;;;;;;;;;5034644;28;20047;-67
2022/10/18 03:42:40;;;;;;;10.50;3.67;;;;;;;;;;5034400;28;20029;-67
2022/10/18 03:45:06;;;;;;;13.27;3.80;;;;;;;;;;5033737;28;20036;-67
2022/10/18 03:47:33;;;;;;;9.60;3.70;;;;;;;;;;5034360;28;20036;-67
2022/10/18 03:49:59;;;;;;;15.93;4.60;;;;;;;;;;5034396;28;20033;-67
2022/10/18 03:52:25;;;;;;;15.23;3.85;;;;;;;;;;5034196;28;20040;-67
2022/10/18 03:54:52;;;;;;;10.93;3.45;;;;;;;;;;5034473;28;20043;-67
2022/10/18 03:57:18;;;;;;;12.48;3.97;;;;;;;;;;5034133;28;20048;-67
2022/10/18 03:59:44;;;;;;;10.35;3.95;;;;;;;;;;5034313;28;20029;-67
2022/10/18 04:02:11;;;;;;;14.05;3.88;;;;;;;;;;5034232;28;20029;-67
2022/10/18 04:04:37;;;;;;;16.30;3.97;;;;;;;;;;5034213;28;20047;-67
2022/10/18 04:07:03;;;;;;;18.50;3.88;;;;;;;;;;5033861;28;20013;-67
2022/10/18 04:09:30;;;;;;;12.82;3.78;;;;;;;;;;5033963;28;20028;-67
2022/10/18 04:11:56;;;;;;;12.50;3.63;;;;;;;;;;5034208;28;20025;-67
2022/10/18 04:14:22;;;;;;;12.98;3.15;;;;;;;;;;5033803;28;20048;-67
2022/10/18 04:16:49;;;;;;;12.02;3.72;;;;;;;;;;5033652;28;20034;-67
2022/10/18 04:19:15;;;;;;;9.77;3.67;;;;;;;;;;5033835;28;20028;-67
2022/10/18 04:21:41;;;;;;;12.20;4.10;;;;;;;;;;5033610;28;20029;-68
2022/10/18 04:24:08;;;;;;;14.70;3.40;;;;;;;;;;5033654;28;20021;-67
2022/10/18 04:26:34;;;;;;;10.95;3.38;;;;;;;;;;5033708;28;20405;-67
2022/10/18 04:29:00;;;;;;;17.02;4.00;;;;;;;;;;5033905;28;20016;-67
2022/10/18 04:31:27;;;;;;;13.25;3.25;;;;;;;;;;5033551;28;20025;-67
2022/10/18 04:33:53;;;;;;;12.63;3.42;;;;;;;;;;5033568;28;20022;-67
2022/10/18 04:36:19;;;;;;;11.02;3.03;;;;;;;;;;5032873;28;20044;-69
2022/10/18 04:38:46;;;;;;;20.23;3.50;;;;;;;;;;5032341;28;20038;-69
2022/10/18 04:41:12;;;;;;;10.60;3.30;;;;;;;;;;5033705;28;20063;-69
2022/10/18 04:43:38;;;;;;;12.27;3.45;;;;;;;;;;5033095;28;20508;-69
2022/10/18 04:46:05;;;;;;;12.32;3.42;;;;;;;;;;5033332;28;20032;-69
2022/10/18 04:48:31;;;;;;;14.13;3.08;;;;;;;;;;5033220;28;20402;-69
2022/10/18 04:50:57;;;;;;;12.57;3.08;;;;;;;;;;5032901;28;20078;-69
2022/10/18 04:53:24;;;;;;;11.20;3.20;;;;;;;;;;5033154;28;20030;-69
2022/10/18 04:55:50;;;;;;;12.73;3.28;;;;;;;;;;5032874;28;20037;-69
2022/10/18 04:58:17;;;;;;;9.20;3.15;;;;;;;;;;5032543;28;20037;-69
2022/10/18 05:00:44;;;;;;;8.45;3.00;;;;;;;;;;5032994;28;20026;-69
2022/10/18 05:03:11;;;;;;;12.55;3.17;;;;;;;;;;5033037;28;20075;-69
2022/10/18 05:05:38;;;;;;;11.00;3.00;;;;;;;;;;5032769;28;20029;-69
2022/10/18 05:08:04;;;;;;;15.27;3.58;;;;;;;;;;5032783;28;20033;-69
2022/10/18 05:10:31;;;;;;;12.38;3.72;;;;;;;;;;5031905;28;20021;-69
2022/10/18 05:12:57;;;;;;;10.93;3.20;;;;;;;;;;5032639;28;20043;-69
2022/10/18 05:15:23;;;;;;;11.85;3.42;;;;;;;;;;5032615;28;20045;-69
2022/10/18 05:17:50;;;;;;;9.65;3.35;;;;;;;;;;5032569;28;20037;-69
2022/10/18 05:20:16;;;;;;;10.80;3.45;;;;;;;;;;5032205;28;20025;-69
2022/10/18 05:22:42;;;;;;;14.32;3.38;;;;;;;;;;5032646;28;20487;-69
2022/10/18 05:25:09;;;;;;;15.00;3.90;;;;;;;;;;5032682;28;20390;-69
2022/10/18 05:27:35;;;;;;;17.27;3.60;;;;;;;;;;5032677;28;20083;-69
2022/10/18 05:30:02;;;;;;;12.98;3.20;;;;;;;;;;5032444;28;20499;-69
2022/10/18 05:32:28;;;;;;;19.10;3.40;;;;;;;;;;5032531;28;20028;-69
2022/10/18 05:34:54;;;;;;;12.73;3.42;;;;;;;;;;5032139;28;20411;-69
2022/10/18 05:37:21;;;;;;;13.30;3.70;;;;;;;;;;5032258;28;20041;-69
2022/10/18 05:39:47;;;;;;;12.15;3.45;;;;;;;;;;5048248;28;20016;-69
2022/10/18 05:42:13;;;;;;;17.13;3.75;;;;;;;;;;5052086;28;20020;-69
2022/10/18 05:44:40;;;;;;;9.75;3.47;;;;;;;;;;5040141;28;20028;-69
2022/10/18 05:47:06;;;;;;;13.45;3.83;;;;;;;;;;5032370;28;20037;-69
2022/10/18 05:49:32;;;;;;;10.10;3.90;;;;;;;;;;5032094;28;20032;-69
2022/10/18 05:51:59;;;;;;;15.10;3.38;;;;;;;;;;5032361;28;20029;-69
2022/10/18 05:54:25;;;;;;;14.50;3.90;;;;;;;;;;5031440;28;20377;-69
2022/10/18 05:56:51;;;;;;;10.35;3.22;;;;;;;;;;5031814;28;20044;-69
2022/10/18 05:59:18;;;;;;;14.90;3.80;;;;;;;;;;5032313;28;20021;-69
2022/10/18 06:01:44;;;;;;;11.90;3.58;;;;;;;;;;5032316;28;20033;-69
2022/10/18 06:04:11;;;;;;;16.55;3.85;;;;;;;;;;5031486;28;20025;-69
2022/10/18 06:06:38;;;;;;;7.55;3.38;;;;;;;;;;5032066;28;20032;-69
2022/10/18 06:09:06;;;;;;;12.25;3.88;;;;;;;;;;5032054;28;20017;-69
2022/10/18 06:11:32;;;;;;;12.55;3.70;;;;;;;;;;5032195;28;20477;-72
2022/10/18 06:13:59;;;;;;;18.20;3.70;;;;;;;;;;5030599;28;20073;-72
2022/10/18 06:16:26;;;;;;;18.08;4.15;;;;;;;;;;5031731;28;20041;-72
2022/10/18 06:18:53;;;;;;;12.20;3.70;;;;;;;;;;5034339;28;20030;-72
2022/10/18 06:21:20;;;;;;;21.88;4.03;;;;;;;;;;5031445;28;20021;-72
2022/10/18 06:23:50;;;;;;;12.25;3.45;;;;;;;;;;5031336;28;20496;-72
2022/10/18 06:26:16;;;;;;;12.88;3.50;;;;;;;;;;5031348;28;20401;-72
2022/10/18 06:28:42;;;;;;;8.38;3.35;;;;;;;;;;5031336;28;20026;-72
2022/10/18 06:31:10;;;;;;;12.52;3.80;;;;;;;;;;5045984;28;20046;-71
2022/10/18 06:33:37;;;;;;;11.63;3.13;;;;;;;;;;5037982;28;20049;-72
2022/10/18 06:36:04;;;;;;;14.60;3.30;;;;;;;;;;5031270;28;20018;-71
2022/10/18 06:38:31;;;;;;;11.35;3.55;;;;;;;;;;5031344;28;20036;-71
2022/10/18 06:40:58;;;;;;;15.00;4.13;;;;;;;;;;5031476;28;20026;-71
2022/10/18 06:43:24;;;;;;;9.15;3.47;;;;;;;;;;5031317;28;20033;-71
2022/10/18 06:45:51;;;;;;;7.93;3.20;;;;;;;;;;5031390;28;20034;-71
2022/10/18 06:48:18;;;;;;;9.70;3.00;;;;;;;;;;5031129;28;20030;-71
2022/10/18 06:50:55;;;;;;;9.77;3.03;;;;;;;;;;5031958;28;20033;-72
2022/10/18 06:53:22;;;;;;;8.23;3.78;;;;;;;;;;5036642;28;20478;-71
2022/10/18 06:55:48;;;;;;;17.05;3.90;;;;;;;;;;5033957;28;20040;-71
2022/10/18 06:58:15;;;;;;;14.32;3.70;;;;;;;;;;5029992;28;20037;-71
2022/10/18 07:00:41;;;;;;;10.40;4.05;;;;;;;;;;5029910;28;20034;-71
2022/10/18 07:03:07;;;;;;;14.20;3.50;;;;;;;;;;5029368;28;20509;-71
2022/10/18 07:05:34;;;;;;;11.82;3.60;;;;;;;;;;5046093;28;20840;-71
2022/10/18 07:08:00;;;;;;;12.68;3.20;;;;;;;;;;5031363;28;20028;-71
2022/10/18 07:10:26;;;;;;;9.77;3.53;;;;;;;;;;5030316;28;20027;-70
2022/10/18 07:12:53;;;;;;;7.97;3.58;;;;;;;;;;5029304;28;20025;-71
2022/10/18 07:15:21;;;;;;;11.95;4.65;;;;;;;;;;5030172;28;20054;-71
2022/10/18 07:17:48;;;;;;;13.95;4.63;;;;;;;;;;5031087;28;20045;-71
2022/10/18 07:20:14;;;;;;;8.98;3.83;;;;;;;;;;5032378;28;20410;-71
2022/10/18 07:22:40;;;;;;;11.32;3.83;;;;;;;;;;5034058;28;20026;-70
2022/10/18 07:25:07;;;;;;;9.10;3.75;;;;;;;;;;5036938;28;20036;-71
2022/10/18 07:27:37;;;;;;;18.50;4.38;;;;;;;;;;5034171;28;20071;-71
2022/10/18 07:30:05;;;;;;;11.45;3.40;;;;;;;;;;5034087;28;20039;-69
2022/10/18 07:32:31;;;;;;;11.70;3.88;;;;;;;;;;5034439;28;20029;-69
2022/10/18 07:34:58;;;;;;;12.98;3.80;;;;;;;;;;5040150;28;20022;-69
2022/10/18 07:37:24;;;;;;;12.38;3.85;;;;;;;;;;5034078;28;20053;-69
2022/10/18 07:39:50;;;;;;;14.63;3.60;;;;;;;;;;5034256;28;20029;-69
2022/10/18 07:42:16;;;;;;;14.43;4.40;;;;;;;;;;5040818;28;20102;-69
2022/10/18 07:44:43;;;;;;;9.85;3.90;;;;;;;;;;5039831;28;20018;-69
2022/10/18 07:47:09;;;;;;;6.90;3.30;;;;;;;;;;5034156;28;20033;-69
2022/10/18 07:49:35;;;;;;;12.00;3.58;;;;;;;;;;5033774;28;20052;-69
2022/10/18 07:52:02;;;;;;;13.13;4.30;;;;;;;;;;5033998;28;20026;-71
2022/10/18 07:54:29;;;;;;;16.90;5.78;;;;;;;;;;5033936;28;20044;-71
2022/10/18 07:56:55;;;;;;;13.23;6.75;;;;;;;;;;5033183;28;20099;-71
2022/10/18 07:59:21;;;;;;;13.48;5.25;;;;;;;;;;5033476;28;20025;-71
2022/10/18 08:01:47;;;;;;;14.85;4.82;;;;;;;;;;5032628;28;20028;-71
2022/10/18 08:04:14;;;;;;;11.70;3.95;;;;;;;;;;5033516;28;20025;-71
2022/10/18 08:06:40;;;;;;;9.82;3.78;;;;;;;;;;5038226;28;20036;-71
2022/10/18 08:09:07;;;;;;;16.10;3.60;;;;;;;;;;5032729;28;20025;-71
2022/10/18 08:11:33;;;;;;;12.25;3.55;;;;;;;;;;5033684;28;20030;-71
2022/10/18 08:13:59;;;;;;;9.90;3.13;;;;;;;;;;5033073;28;20522;-71
2022/10/18 08:16:27;;;;;;;15.82;5.00;;;;;;;;;;5041784;28;20017;-71
2022/10/18 08:18:54;;;;;;;11.82;4.30;;;;;;;;;;5053532;28;20029;-71
2022/10/18 08:21:20;;;;;;;14.05;4.07;;;;;;;;;;5053340;28;20397;-70
2022/10/18 08:23:47;;;;;;;18.33;3.75;;;;;;;;;;5052265;28;20029;-69
2022/10/18 08:26:15;;;;;;;10.43;3.40;;;;;;;;;;5033387;28;20033;-71
2022/10/18 08:28:41;;;;;;;15.52;3.70;;;;;;;;;;5031672;28;20521;-71
2022/10/18 08:31:10;;;;;;;9.43;3.90;;;;;;;;;;5032486;28;20026;-70
2022/10/18 08:33:37;;;;;;;8.20;3.58;;;;;;;;;;5033474;28;20033;-71
2022/10/18 08:36:05;;;;;;;14.57;4.22;;;;;;;;;;5031350;28;20026;-71
2022/10/18 08:38:33;;;;;;;19.08;3.95;;;;;;;;;;5028335;28;20029;-71
2022/10/18 08:41:15;;;;;;;8.07;3.50;;;;;;;;;;5023999;28;20027;-70
2022/10/18 08:43:46;;;;;;;8.52;3.45;;;;;;;;;;5030273;28;20013;-68
2022/10/18 08:46:14;;;;;;;12.93;4.05;;;;;;;;;;5031161;28;20036;-67
2022/10/18 08:48:48;;;;;;;11.27;4.07;;;;;;;;;;5022443;28;20022;-69
2022/10/18 08:51:24;;;;;;;8.68;2.97;;;;;;;;;;5022394;28;20059;-67
2022/10/18 08:53:50;;;;;;;11.25;2.88;;;;;;;;;;5027847;28;20033;-68
2022/10/18 08:56:20;;;;;;;12.45;3.35;;;;;;;;;;5027068;28;20036;-67
2022/10/18 08:58:46;;;;;;;11.17;2.53;;;;;;;;;;5026428;28;20490;-68
2022/10/18 09:01:31;;;;;;;8.30;2.80;;;;;;;;;;5026007;28;20025;-68
2022/10/18 09:04:08;;;;;;;8.73;2.83;;;;;;;;;;5032294;28;20033;-68
2022/10/18 09:06:57;;;;;;;8.73;2.97;;;;;;;;;;5031842;28;20033;-68
2022/10/18 09:09:24;;;;;;;14.90;2.72;;;;;;;;;;5034743;28;20033;-69
2022/10/18 09:11:54;;;;;;;16.98;3.47;;;;;;;;;;5032142;28;20030;-68
2022/10/18 09:14:21;;;;;;;;;;;;;;;;;;5032386;28;20042;-68
2022/10/18 09:16:58;;;;;;;17.25;3.33;;;;;;;;;;5032207;28;19919;-69
2022/10/18 09:19:39;;;;;;;10.82;2.65;;;;;;;;;;5032329;28;20128;-67
2022/10/18 09:22:12;;;;;;;11.68;3.10;;;;;;;;;;5031056;28;20026;-70
2022/10/18 09:24:40;;;;;;;9.45;2.63;;;;;;;;;;5033160;28;20094;-71
2022/10/18 09:27:14;;;;;;;12.40;3.15;;;;;;;;;;5030653;28;20406;-72
2022/10/18 09:29:59;;;;;;;14.52;2.70;;;;;;;;;;5032650;28;20074;-71
2022/10/18 09:32:44;;;;;;;11.10;3.10;;;;;;;;;;5032470;28;20421;-71
2022/10/18 09:35:17;;;;;;;6.82;2.65;;;;;;;;;;5032484;28;20026;-70
2022/10/18 09:37:44;;;;;;;8.88;2.55;;;;;;;;;;5032150;28;20041;-71
2022/10/18 09:40:18;;;;;;;10.65;2.53;;;;;;;;;;5032007;28;20019;-70
2022/10/18 09:42:51;;;;;;;9.13;1.90;;;;;;;;;;5032427;28;20029;-71
2022/10/18 09:45:26;;;;;;;12.07;2.63;;;;;;;;;;5031340;28;20021;-70
2022/10/18 09:47:55;;;;;;;6.30;2.50;;;;;;;;;;5031123;28;20040;-71
2022/10/18 09:50:31;;;;;;;7.97;2.25;;;;;;;;;;5032164;28;20029;-71
2022/10/18 09:53:05;;;;;;;5.70;2.13;;;;;;;;;;5031700;28;20038;-71
2022/10/18 09:55:35;;;;;;;7.35;2.65;;;;;;;;;;5031416;28;20036;-71
2022/10/18 09:58:05;;;;;;;9.03;2.07;;;;;;;;;;5031148;28;20025;-71
2022/10/18 10:00:34;;;;;;;6.63;2.00;;;;;;;;;;5029067;28;20032;-71
2022/10/18 10:03:00;;;;;;;12.80;2.28;;;;;;;;;;5030993;28;20288;-71
2022/10/18 10:05:27;;;;;;;10.20;2.47;;;;;;;;;;5032063;28;20018;-71
2022/10/18 10:07:58;;;;;;;6.00;2.40;;;;;;;;;;5031894;28;20033;-71
2022/10/18 10:10:28;;;;;;;11.75;2.83;;;;;;;;;;5031547;28;20521;-71
2022/10/18 10:13:15;;;;;;;8.07;2.30;;;;;;;;;;5030436;28;20037;-71
2022/10/18 10:15:46;;;;;;;11.15;2.60;;;;;;;;;;5031723;28;20029;-71
2022/10/18 10:18:12;;;;;;;;;;;;;;;;;;5032084;28;20045;-71
2022/10/18 10:20:41;;;;;;;11.43;2.80;;;;;;;;;;5031780;28;20404;-71
2022/10/18 10:23:09;;;;;;;13.93;3.22;;;;;;;;;;5031568;28;20356;-71
2022/10/18 10:25:37;;;;;;;7.57;2.65;;;;;;;;;;5031289;28;20029;-71
2022/10/18 10:28:06;;;;;;;11.27;2.30;;;;;;;;;;5031732;28;20030;-68
2022/10/18 10:30:37;;;;;;;8.57;2.90;;;;;;;;;;5032422;28;20108;-68
2022/10/18 10:33:04;;;;;;;9.02;2.65;;;;;;;;;;5031294;28;20024;-68
2022/10/18 10:35:36;;;;;;;9.70;2.20;;;;;;;;;;5029941;28;20026;-71
2022/10/18 10:38:03;;;;;;;11.40;2.10;;;;;;;;;;5031435;28;20043;-71
2022/10/18 10:40:52;;;;;;;11.98;3.05;;;;;;;;;;5031553;28;20036;-71
2022/10/18 10:43:19;;;;;;;13.77;2.80;;;;;;;;;;5030251;28;20037;-71
2022/10/18 10:46:00;;;;;;;6.85;2.67;;;;;;;;;;5031695;28;20132;-71
2022/10/18 10:48:27;;;;;;;6.78;2.15;;;;;;;;;;5031937;28;20029;-71
2022/10/18 10:51:01;;;;;;;9.60;2.70;;;;;;;;;;5031370;28;20409;-70
2022/10/18 10:53:49;;;;;;;7.35;2.60;;;;;;;;;;5030129;28;20025;-71
2022/10/18 10:56:26;;;;;;;9.57;2.70;;;;;;;;;;5034174;28;20444;-71
2022/10/18 10:58:53;;;;;;;8.23;2.75;;;;;;;;;;5035274;28;20059;-70
2022/10/18 11:01:28;;;;;;;7.70;2.75;;;;;;;;;;5035371;28;20020;-71
2022/10/18 11:03:56;;;;;;;7.85;2.70;;;;;;;;;;5035349;28;20035;-71
2022/10/18 11:06:34;;;;;;;11.85;3.28;;;;;;;;;;5035063;28;20017;-71
2022/10/18 11:09:03;;;;;;;6.20;2.35;;;;;;;;;;5034913;28;20490;-70
2022/10/18 11:11:35;;;;;;;10.32;2.67;;;;;;;;;;5035407;28;20026;-71
2022/10/18 11:14:06;;;;;;;6.90;2.30;;;;;;;;;;5034544;28;20048;-71
2022/10/18 11:16:36;;;;;;;10.18;2.40;;;;;;;;;;5034858;28;20036;-71
2022/10/18 11:19:09;;;;;;;8.90;2.42;;;;;;;;;;5034758;28;20418;-71
2022/10/18 11:21:36;;;;;;;5.65;2.10;;;;;;;;;;5034631;28;20067;-70
2022/10/18 11:24:02;;;;;;;8.82;2.35;;;;;;;;;;5034302;28;20025;-71
2022/10/18 11:26:47;;;;;;;4.68;2.22;;;;;;;;;;5034804;28;20036;-71
2022/10/18 11:29:28;;;;;;;12.02;2.83;;;;;;;;;;5050023;28;20044;-71
2022/10/18 11:31:58;;;;;;;8.40;2.25;;;;;;;;;;5034580;28;20063;-70
2022/10/18 11:34:59;;;;;;;6.47;2.40;;;;;;;;;;5034464;28;20025;-71
2022/10/18 11:37:44;;;;;;;4.38;2.15;;;;;;;;;;5011644;28;20037;-71
2022/10/18 11:40:22;;;;;;;3.95;2.05;;;;;;;;;;5015549;28;20037;-71
2022/10/18 11:42:49;;;;;;;3.47;2.00;;;;;;;;;;5023281;28;20032;-69
2022/10/18 11:45:27;;;;;;;8.55;2.35;;;;;;;;;;5012048;28;20109;-68
2022/10/18 11:48:13;;;;;;;6.90;2.20;;;;;;;;;;5018546;28;20022;-70
2022/10/18 11:50:40;;;;;;;7.32;2.60;;;;;;;;;;4967165;28;20522;-70
2022/10/18 11:53:32;;;;;;;5.80;2.42;;;;;;;;;;4953458;29;20039;-70
2022/10/18 11:56:18;;;;;;;5.82;2.72;;;;;;;;;;4921331;29;20040;-70
2022/10/18 11:58:50;;;;;;;5.97;2.28;;;;;;;;;;4915315;29;20066;-69
2022/10/18 12:01:32;;;;;;;5.00;2.28;;;;;;;;;;4914973;29;20052;-71
2022/10/18 12:04:13;;;;;;;4.03;2.22;;;;;;;;;;4915379;29;20032;-71
2022/10/18 12:06:41;;;;;;;5.53;2.60;;;;;;;;;;4914095;29;20041;-71
2022/10/18 12:09:23;;;;;;;5.50;2.58;;;;;;;;;;4915430;29;20032;-70
2022/10/18 12:11:53;;;;;;;8.13;2.42;;;;;;;;;;4914680;29;20536;-71
2022/10/18 12:14:24;;;;;;;9.15;2.38;;;;;;;;;;4913673;29;20078;-71
2022/10/18 12:16:50;;;;;;;;;;;;;;;;;;4913293;29;20098;-71
2022/10/18 12:19:25;;;;;;;7.72;2.25;;;;;;;;;;4913641;29;19936;-71
2022/10/18 12:21:52;;;;;;;12.35;2.50;;;;;;;;;;4914014;29;20036;-71
2022/10/18 12:24:22;;;;;;;7.70;2.58;;;;;;;;;;4913621;29;20028;-70
2022/10/18 12:26:51;;;;;;;7.40;2.20;;;;;;;;;;4916335;28;20040;-71
2022/10/18 12:29:20;;;;;;;8.35;2.83;;;;;;;;;;4970504;28;20446;-70
2022/10/18 12:31:56;;;;;;;8.00;2.72;;;;;;;;;;4976362;28;20447;-70
2022/10/18 12:34:23;;;;;;;7.63;2.60;;;;;;;;;;5033142;28;20045;-70
2022/10/18 12:37:09;;;;;;;7.63;2.45;;;;;;;;;;5032581;28;20033;-70
2022/10/18 12:39:42;;;;;;;6.30;2.25;;;;;;;;;;5029402;28;20041;-71
2022/10/18 12:42:17;;;;;;;5.45;2.28;;;;;;;;;;5028005;28;20112;-72
2022/10/18 12:44:45;;;;;;;6.85;2.38;;;;;;;;;;5019947;28;20132;-71
2022/10/18 12:47:20;;;;;;;6.78;2.30;;;;;;;;;;5000880;28;20041;-71
2022/10/18 12:49:54;;;;;;;10.18;2.47;;;;;;;;;;5030030;28;20033;-71
2022/10/18 12:52:25;;;;;;;8.30;2.60;;;;;;;;;;5030837;28;20044;-71
2022/10/18 12:55:11;;;;;;;5.78;2.33;;;;;;;;;;5030593;28;20394;-71
2022/10/18 12:57:53;;;;;;;7.43;2.58;;;;;;;;;;5029053;28;20098;-71
2022/10/18 13:00:31;;;;;;;6.97;2.50;;;;;;;;;;5026005;28;20035;-72
2022/10/18 13:03:23;;;;;;;10.63;2.55;;;;;;;;;;4990908;28;20513;-69
2022/10/18 13:05:52;;;;;;;8.85;2.38;;;;;;;;;;5019645;28;20029;-68
2022/10/18 13:08:27;;;;;;;9.77;2.60;;;;;;;;;;5026186;28;20041;-69
2022/10/18 13:11:09;;;;;;;5.47;2.70;;;;;;;;;;5030288;28;20510;-69
2022/10/18 13:13:35;;;;;;;8.23;2.55;;;;;;;;;;5017532;28;20495;-68
2022/10/18 13:16:09;;;;;;;4.97;2.50;;;;;;;;;;4999759;28;20515;-69
2022/10/18 13:18:54;;;;;;;8.70;2.60;;;;;;;;;;5030437;28;20422;-68
2022/10/18 13:21:20;;;;;;;11.50;2.45;;;;;;;;;;5032311;28;20033;-69
2022/10/18 13:23:53;;;;;;;8.70;2.25;;;;;;;;;;5031904;28;20018;-69
2022/10/18 13:26:34;;;;;;;6.80;2.45;;;;;;;;;;5031968;28;20033;-69
2022/10/18 13:29:13;;;;;;;6.20;2.55;;;;;;;;;;5027112;28;20394;-68
2022/10/18 13:31:43;;;;;;;7.05;2.08;;;;;;;;;;5035074;28;20022;-68
2022/10/18 13:34:21;;;;;;;10.45;2.67;;;;;;;;;;5031705;28;20024;-68
2022/10/18 13:37:14;;;;;;;4.30;1.77;;;;;;;;;;5031065;28;20044;-69
2022/10/18 13:39:41;;;;;;;9.80;2.20;;;;;;;;;;5031017;28;20067;-69
2022/10/18 13:42:13;;;;;;;7.60;2.30;;;;;;;;;;5031847;28;20463;-69
2022/10/18 13:44:40;;;;;;;6.95;1.98;;;;;;;;;;5032067;28;20025;-68
2022/10/18 13:47:07;;;;;;;6.53;2.20;;;;;;;;;;5031191;28;20025;-69
2022/10/18 13:49:36;;;;;;;8.85;2.15;;;;;;;;;;5031735;28;20032;-69
2022/10/18 13:52:05;;;;;;;4.50;2.42;;;;;;;;;;5031748;28;20037;-69
2022/10/18 13:54:37;;;;;;;10.43;2.72;;;;;;;;;;5031877;28;20034;-68
2022/10/18 13:57:13;;;;;;;7.25;2.35;;;;;;;;;;5032152;28;20039;-69
2022/10/18 13:59:42;;;;;;;8.60;2.83;;;;;;;;;;5033243;28;20022;-68
2022/10/18 14:02:26;;;;;;;6.40;3.08;;;;;;;;;;5033684;28;20033;-69
2022/10/18 14:05:04;;;;;;;3.33;1.92;;;;;;;;;;5031084;28;20382;-67
2022/10/18 14:07:31;;;;;;;5.05;2.25;;;;;;;;;;5031429;28;20030;-72
2022/10/18 14:09:58;;;;;;;7.50;3.13;;;;;;;;;;5031583;28;20486;-71
2022/10/18 14:12:34;;;;;;;8.38;2.40;;;;;;;;;;5030773;28;20033;-71
2022/10/18 14:15:16;;;;;;;6.35;2.75;;;;;;;;;;5043326;28;20046;-71
2022/10/18 14:17:52;;;;;;;13.15;2.92;;;;;;;;;;5031247;28;20052;-71
2022/10/18 14:20:25;;;;;;;6.95;2.30;;;;;;;;;;5027421;28;20491;-71
2022/10/18 14:23:08;;;;;;;11.05;2.60;;;;;;;;;;5014653;28;20674;-69
2022/10/18 14:25:35;;;;;;;3.78;2.67;;;;;;;;;;5029460;28;20031;-69
2022/10/18 14:28:11;;;;;;;6.35;2.17;;;;;;;;;;5011931;28;20037;-69
2022/10/18 14:30:38;;;;;;;6.40;2.50;;;;;;;;;;5023102;28;20022;-68
2022/10/18 14:33:04;;;;;;;7.63;2.72;;;;;;;;;;5034764;28;20036;-69
2022/10/18 14:35:31;;;;;;;5.05;2.53;;;;;;;;;;5037396;28;20040;-68
2022/10/18 14:37:58;;;;;;;7.93;2.83;;;;;;;;;;5034935;28;20047;-69
2022/10/18 14:40:27;;;;;;;5.35;2.53;;;;;;;;;;5034239;28;20038;-69
2022/10/18 14:42:54;;;;;;;8.02;2.70;;;;;;;;;;5034941;28;20029;-69
2022/10/18 14:45:21;;;;;;;7.18;2.50;;;;;;;;;;5033458;28;20030;-69
2022/10/18 14:47:47;;;;;;;9.90;2.80;;;;;;;;;;5043749;28;20032;-71
2022/10/18 14:50:31;;;;;;;9.25;2.92;;;;;;;;;;5034740;28;20402;-71
2022/10/18 14:53:03;;;;;;;4.95;2.83;;;;;;;;;;5034782;28;20493;-68